sensor_id;sensor_type;location;lat;lon;timestamp;P1;durP1;ratioP1;P2;durP2;ratioP2
8737;SDS011;4405;49.272;8.590;2023-01-31T00:00:15;13.73;;;8.40;;
8737;SDS011;4405;49.272;8.590;2023-01-31T00:02:41;9.10;;;7.70;;
8737;SDS011;4405;49.272;8.590;2023-01-31T00:05:08;12.67;;;8.70;;
8737;SDS011;4405;49.272;8.590;2023-01-31T00:07:34;12.03;;;8.77;;
8737;SDS011;4405;49.272;8.590;2023-01-31T00:10:01;11.57;;;8.40;;
8737;SDS011;4405;49.272;8.590;2023-01-31T00:12:28;11.63;;;8.33;;
8737;SDS011;4405;49.272;8.590;2023-01-31T00:14:55;13.50;;;8.40;;
8737;SDS011;4405;49.272;8.590;2023-01-31T00:17:21;14.37;;;8.57;;
8737;SDS011;4405;49.272;8.590;2023-01-31T00:19:47;11.87;;;7.83;;
8737;SDS011;4405;49.272;8.590;2023-01-31T00:22:14;13.87;;;8.33;;
8737;SDS011;4405;49.272;8.590;2023-01-31T00:24:40;10.83;;;7.83;;
8737;SDS011;4405;49.272;8.590;2023-01-31T00:27:06;10.10;;;8.07;;
8737;SDS011;4405;49.272;8.590;2023-01-31T00:29:34;11.57;;;8.33;;
8737;SDS011;4405;49.272;8.590;2023-01-31T00:32:00;11.83;;;8.60;;
8737;SDS011;4405;49.272;8.590;2023-01-31T00:34:28;11.57;;;8.47;;
8737;SDS011;4405;49.272;8.590;2023-01-31T00:36:54;16.83;;;8.70;;
8737;SDS011;4405;49.272;8.590;2023-01-31T00:39:20;11.63;;;8.17;;
8737;SDS011;4405;49.272;8.590;2023-01-31T00:41:47;12.93;;;8.40;;
8737;SDS011;4405;49.272;8.590;2023-01-31T00:44:13;12.97;;;8.43;;
8737;SDS011;4405;49.272;8.590;2023-01-31T00:46:41;12.07;;;8.33;;
8737;SDS011;4405;49.272;8.590;2023-01-31T00:49:07;10.20;;;8.27;;
8737;SDS011;4405;49.272;8.590;2023-01-31T00:51:33;12.73;;;8.77;;
8737;SDS011;4405;49.272;8.590;2023-01-31T00:53:59;14.93;;;8.63;;
8737;SDS011;4405;49.272;8.590;2023-01-31T00:56:26;11.80;;;8.23;;
8737;SDS011;4405;49.272;8.590;2023-01-31T00:58:52;13.57;;;8.80;;
8737;SDS011;4405;49.272;8.590;2023-01-31T01:01:20;13.30;;;8.57;;
8737;SDS011;4405;49.272;8.590;2023-01-31T01:03:48;13.50;;;8.90;;
8737;SDS011;4405;49.272;8.590;2023-01-31T01:06:14;11.87;;;8.33;;
8737;SDS011;4405;49.272;8.590;2023-01-31T01:08:41;14.70;;;9.07;;
8737;SDS011;4405;49.272;8.590;2023-01-31T01:11:09;13.50;;;9.13;;
8737;SDS011;4405;49.272;8.590;2023-01-31T01:13:35;12.60;;;8.27;;
8737;SDS011;4405;49.272;8.590;2023-01-31T01:16:05;12.50;;;8.30;;
8737;SDS011;4405;49.272;8.590;2023-01-31T01:18:32;14.03;;;9.00;;
8737;SDS011;4405;49.272;8.590;2023-01-31T01:21:04;14.93;;;8.93;;
8737;SDS011;4405;49.272;8.590;2023-01-31T01:23:31;11.07;;;8.20;;
8737;SDS011;4405;49.272;8.590;2023-01-31T01:25:57;15.23;;;8.93;;
8737;SDS011;4405;49.272;8.590;2023-01-31T01:28:23;13.97;;;9.10;;
8737;SDS011;4405;49.272;8.590;2023-01-31T01:30:50;13.87;;;9.03;;
8737;SDS011;4405;49.272;8.590;2023-01-31T01:33:16;12.40;;;8.70;;
8737;SDS011;4405;49.272;8.590;2023-01-31T01:35:42;15.60;;;9.50;;
8737;SDS011;4405;49.272;8.590;2023-01-31T01:38:10;16.83;;;9.30;;
8737;SDS011;4405;49.272;8.590;2023-01-31T01:40:36;12.87;;;9.17;;
8737;SDS011;4405;49.272;8.590;2023-01-31T01:43:03;16.37;;;9.40;;
8737;SDS011;4405;49.272;8.590;2023-01-31T01:45:29;19.23;;;9.77;;
8737;SDS011;4405;49.272;8.590;2023-01-31T01:47:57;14.00;;;9.17;;
8737;SDS011;4405;49.272;8.590;2023-01-31T01:50:26;14.20;;;9.40;;
8737;SDS011;4405;49.272;8.590;2023-01-31T01:52:55;17.83;;;10.07;;
8737;SDS011;4405;49.272;8.590;2023-01-31T01:55:27;14.77;;;10.07;;
8737;SDS011;4405;49.272;8.590;2023-01-31T01:57:55;12.93;;;9.80;;
8737;SDS011;4405;49.272;8.590;2023-01-31T02:00:24;17.00;;;10.57;;
8737;SDS011;4405;49.272;8.590;2023-01-31T02:02:53;15.60;;;9.63;;
8737;SDS011;4405;49.272;8.590;2023-01-31T02:05:22;13.17;;;10.23;;
8737;SDS011;4405;49.272;8.590;2023-01-31T02:07:49;14.73;;;9.73;;
8737;SDS011;4405;49.272;8.590;2023-01-31T02:10:16;13.60;;;9.60;;
8737;SDS011;4405;49.272;8.590;2023-01-31T02:12:46;16.53;;;9.40;;
8737;SDS011;4405;49.272;8.590;2023-01-31T02:15:13;12.63;;;9.60;;
8737;SDS011;4405;49.272;8.590;2023-01-31T02:17:39;17.50;;;10.63;;
8737;SDS011;4405;49.272;8.590;2023-01-31T02:20:21;18.73;;;10.20;;
8737;SDS011;4405;49.272;8.590;2023-01-31T02:22:53;16.90;;;9.37;;
8737;SDS011;4405;49.272;8.590;2023-01-31T02:25:29;13.10;;;10.03;;
8737;SDS011;4405;49.272;8.590;2023-01-31T02:28:10;16.07;;;9.20;;
8737;SDS011;4405;49.272;8.590;2023-01-31T02:33:30;13.20;;;9.57;;
8737;SDS011;4405;49.272;8.590;2023-01-31T02:36:03;12.77;;;8.87;;
8737;SDS011;4405;49.272;8.590;2023-01-31T02:38:39;15.57;;;8.77;;
8737;SDS011;4405;49.272;8.590;2023-01-31T02:41:09;15.00;;;8.73;;
8737;SDS011;4405;49.272;8.590;2023-01-31T02:43:39;13.67;;;8.77;;
8737;SDS011;4405;49.272;8.590;2023-01-31T02:46:22;17.83;;;9.10;;
8737;SDS011;4405;49.272;8.590;2023-01-31T02:48:52;12.93;;;8.87;;
8737;SDS011;4405;49.272;8.590;2023-01-31T02:51:19;12.00;;;9.07;;
8737;SDS011;4405;49.272;8.590;2023-01-31T02:53:49;12.50;;;9.23;;
8737;SDS011;4405;49.272;8.590;2023-01-31T02:56:17;13.63;;;9.17;;
8737;SDS011;4405;49.272;8.590;2023-01-31T02:58:44;13.07;;;8.63;;
8737;SDS011;4405;49.272;8.590;2023-01-31T03:01:13;13.43;;;9.30;;
8737;SDS011;4405;49.272;8.590;2023-01-31T03:03:40;14.17;;;9.07;;
8737;SDS011;4405;49.272;8.590;2023-01-31T03:08:54;14.07;;;8.50;;
8737;SDS011;4405;49.272;8.590;2023-01-31T03:11:21;16.10;;;8.47;;
8737;SDS011;4405;49.272;8.590;2023-01-31T03:13:51;16.97;;;8.77;;
8737;SDS011;4405;49.272;8.590;2023-01-31T03:16:23;15.80;;;8.33;;
8737;SDS011;4405;49.272;8.590;2023-01-31T03:19:11;14.63;;;8.90;;
8737;SDS011;4405;49.272;8.590;2023-01-31T03:21:41;12.30;;;8.00;;
8737;SDS011;4405;49.272;8.590;2023-01-31T03:24:10;14.47;;;8.37;;
8737;SDS011;4405;49.272;8.590;2023-01-31T03:26:37;14.10;;;8.60;;
8737;SDS011;4405;49.272;8.590;2023-01-31T03:29:04;13.63;;;9.07;;
8737;SDS011;4405;49.272;8.590;2023-01-31T03:31:31;17.77;;;9.53;;
8737;SDS011;4405;49.272;8.590;2023-01-31T03:34:01;14.43;;;8.67;;
8737;SDS011;4405;49.272;8.590;2023-01-31T03:36:29;15.50;;;9.23;;
8737;SDS011;4405;49.272;8.590;2023-01-31T03:39:02;16.53;;;9.70;;
8737;SDS011;4405;49.272;8.590;2023-01-31T03:41:33;16.13;;;9.60;;
8737;SDS011;4405;49.272;8.590;2023-01-31T03:44:00;16.00;;;10.00;;
8737;SDS011;4405;49.272;8.590;2023-01-31T03:46:29;15.83;;;9.87;;
8737;SDS011;4405;49.272;8.590;2023-01-31T03:48:57;16.97;;;10.67;;
8737;SDS011;4405;49.272;8.590;2023-01-31T03:51:24;12.00;;;8.70;;
8737;SDS011;4405;49.272;8.590;2023-01-31T03:53:53;18.40;;;9.50;;
8737;SDS011;4405;49.272;8.590;2023-01-31T03:56:22;18.03;;;9.00;;
8737;SDS011;4405;49.272;8.590;2023-01-31T03:58:53;10.23;;;8.77;;
8737;SDS011;4405;49.272;8.590;2023-01-31T04:01:22;15.73;;;9.27;;
8737;SDS011;4405;49.272;8.590;2023-01-31T04:03:50;15.63;;;9.07;;
8737;SDS011;4405;49.272;8.590;2023-01-31T04:06:17;16.43;;;9.27;;
8737;SDS011;4405;49.272;8.590;2023-01-31T04:08:43;14.00;;;9.10;;
8737;SDS011;4405;49.272;8.590;2023-01-31T04:11:10;15.93;;;9.07;;
8737;SDS011;4405;49.272;8.590;2023-01-31T04:13:38;15.27;;;9.43;;
8737;SDS011;4405;49.272;8.590;2023-01-31T04:16:06;18.77;;;9.57;;
8737;SDS011;4405;49.272;8.590;2023-01-31T04:18:32;15.93;;;9.27;;
8737;SDS011;4405;49.272;8.590;2023-01-31T04:20:58;20.87;;;9.30;;
8737;SDS011;4405;49.272;8.590;2023-01-31T04:23:25;15.73;;;9.07;;
8737;SDS011;4405;49.272;8.590;2023-01-31T04:25:51;21.37;;;9.40;;
8737;SDS011;4405;49.272;8.590;2023-01-31T04:28:18;19.17;;;10.17;;
8737;SDS011;4405;49.272;8.590;2023-01-31T04:30:44;19.33;;;10.00;;
8737;SDS011;4405;49.272;8.590;2023-01-31T04:33:12;15.97;;;9.53;;
8737;SDS011;4405;49.272;8.590;2023-01-31T04:35:38;18.97;;;9.73;;
8737;SDS011;4405;49.272;8.590;2023-01-31T04:38:05;15.40;;;8.93;;
8737;SDS011;4405;49.272;8.590;2023-01-31T04:40:31;18.93;;;9.50;;
8737;SDS011;4405;49.272;8.590;2023-01-31T04:42:58;17.63;;;9.30;;
8737;SDS011;4405;49.272;8.590;2023-01-31T04:45:24;18.17;;;9.63;;
8737;SDS011;4405;49.272;8.590;2023-01-31T04:47:50;17.20;;;9.77;;
8737;SDS011;4405;49.272;8.590;2023-01-31T04:50:18;16.67;;;9.07;;
8737;SDS011;4405;49.272;8.590;2023-01-31T04:52:44;15.90;;;9.77;;
8737;SDS011;4405;49.272;8.590;2023-01-31T04:55:14;17.20;;;9.80;;
8737;SDS011;4405;49.272;8.590;2023-01-31T04:57:40;19.13;;;9.97;;
8737;SDS011;4405;49.272;8.590;2023-01-31T05:00:07;18.17;;;10.10;;
8737;SDS011;4405;49.272;8.590;2023-01-31T05:02:33;15.63;;;9.70;;
8737;SDS011;4405;49.272;8.590;2023-01-31T05:05:00;15.93;;;9.33;;
8737;SDS011;4405;49.272;8.590;2023-01-31T05:07:28;21.60;;;10.07;;
8737;SDS011;4405;49.272;8.590;2023-01-31T05:09:54;18.73;;;10.10;;
8737;SDS011;4405;49.272;8.590;2023-01-31T05:12:20;16.20;;;9.00;;
8737;SDS011;4405;49.272;8.590;2023-01-31T05:14:47;16.07;;;9.93;;
8737;SDS011;4405;49.272;8.590;2023-01-31T05:17:13;17.00;;;10.10;;
8737;SDS011;4405;49.272;8.590;2023-01-31T05:19:39;18.87;;;10.20;;
8737;SDS011;4405;49.272;8.590;2023-01-31T05:22:06;18.83;;;9.47;;
8737;SDS011;4405;49.272;8.590;2023-01-31T05:24:34;16.83;;;9.57;;
8737;SDS011;4405;49.272;8.590;2023-01-31T05:27:01;21.67;;;9.50;;
8737;SDS011;4405;49.272;8.590;2023-01-31T05:29:28;19.07;;;10.10;;
8737;SDS011;4405;49.272;8.590;2023-01-31T05:31:55;15.83;;;9.67;;
8737;SDS011;4405;49.272;8.590;2023-01-31T05:34:22;17.63;;;9.90;;
8737;SDS011;4405;49.272;8.590;2023-01-31T05:36:49;15.13;;;10.03;;
8737;SDS011;4405;49.272;8.590;2023-01-31T05:39:15;17.43;;;10.27;;
8737;SDS011;4405;49.272;8.590;2023-01-31T05:41:43;17.63;;;10.27;;
8737;SDS011;4405;49.272;8.590;2023-01-31T05:44:09;15.07;;;10.03;;
8737;SDS011;4405;49.272;8.590;2023-01-31T05:46:36;18.63;;;9.93;;
8737;SDS011;4405;49.272;8.590;2023-01-31T05:49:05;14.97;;;10.53;;
8737;SDS011;4405;49.272;8.590;2023-01-31T05:51:31;17.10;;;9.53;;
8737;SDS011;4405;49.272;8.590;2023-01-31T05:53:57;22.67;;;10.23;;
8737;SDS011;4405;49.272;8.590;2023-01-31T05:56:24;16.40;;;10.13;;
8737;SDS011;4405;49.272;8.590;2023-01-31T05:58:51;15.53;;;9.73;;
8737;SDS011;4405;49.272;8.590;2023-01-31T06:01:18;18.23;;;10.63;;
8737;SDS011;4405;49.272;8.590;2023-01-31T06:03:44;18.93;;;9.83;;
8737;SDS011;4405;49.272;8.590;2023-01-31T06:06:11;16.83;;;9.50;;
8737;SDS011;4405;49.272;8.590;2023-01-31T06:08:37;21.10;;;10.83;;
8737;SDS011;4405;49.272;8.590;2023-01-31T06:11:04;18.17;;;10.33;;
8737;SDS011;4405;49.272;8.590;2023-01-31T06:13:30;20.73;;;10.43;;
8737;SDS011;4405;49.272;8.590;2023-01-31T06:15:58;20.93;;;10.80;;
8737;SDS011;4405;49.272;8.590;2023-01-31T06:18:24;21.83;;;10.37;;
8737;SDS011;4405;49.272;8.590;2023-01-31T06:20:51;18.40;;;10.23;;
8737;SDS011;4405;49.272;8.590;2023-01-31T06:23:17;18.97;;;9.80;;
8737;SDS011;4405;49.272;8.590;2023-01-31T06:25:44;17.47;;;10.53;;
8737;SDS011;4405;49.272;8.590;2023-01-31T06:28:13;21.40;;;10.10;;
8737;SDS011;4405;49.272;8.590;2023-01-31T06:30:39;22.83;;;10.63;;
8737;SDS011;4405;49.272;8.590;2023-01-31T06:33:07;16.80;;;9.67;;
8737;SDS011;4405;49.272;8.590;2023-01-31T06:35:33;19.50;;;10.10;;
8737;SDS011;4405;49.272;8.590;2023-01-31T06:38:00;21.47;;;10.70;;
8737;SDS011;4405;49.272;8.590;2023-01-31T06:40:26;21.33;;;10.23;;
8737;SDS011;4405;49.272;8.590;2023-01-31T06:42:53;18.80;;;10.97;;
8737;SDS011;4405;49.272;8.590;2023-01-31T06:45:19;20.57;;;10.93;;
8737;SDS011;4405;49.272;8.590;2023-01-31T06:47:45;22.60;;;10.53;;
8737;SDS011;4405;49.272;8.590;2023-01-31T06:50:13;19.43;;;10.53;;
8737;SDS011;4405;49.272;8.590;2023-01-31T06:52:39;27.93;;;11.20;;
8737;SDS011;4405;49.272;8.590;2023-01-31T06:55:06;22.63;;;11.67;;
8737;SDS011;4405;49.272;8.590;2023-01-31T06:57:33;18.90;;;10.67;;
8737;SDS011;4405;49.272;8.590;2023-01-31T06:59:59;18.60;;;11.00;;
8737;SDS011;4405;49.272;8.590;2023-01-31T07:02:25;18.87;;;10.47;;
8737;SDS011;4405;49.272;8.590;2023-01-31T07:04:52;20.53;;;10.50;;
8737;SDS011;4405;49.272;8.590;2023-01-31T07:07:20;15.70;;;10.37;;
8737;SDS011;4405;49.272;8.590;2023-01-31T07:09:47;19.13;;;11.23;;
8737;SDS011;4405;49.272;8.590;2023-01-31T07:12:13;19.73;;;10.57;;
8737;SDS011;4405;49.272;8.590;2023-01-31T07:14:39;20.73;;;10.60;;
8737;SDS011;4405;49.272;8.590;2023-01-31T07:17:06;24.47;;;11.57;;
8737;SDS011;4405;49.272;8.590;2023-01-31T07:19:32;20.73;;;11.17;;
8737;SDS011;4405;49.272;8.590;2023-01-31T07:21:59;19.03;;;10.43;;
8737;SDS011;4405;49.272;8.590;2023-01-31T07:24:26;17.17;;;10.40;;
8737;SDS011;4405;49.272;8.590;2023-01-31T07:26:53;16.80;;;9.60;;
8737;SDS011;4405;49.272;8.590;2023-01-31T07:29:19;22.37;;;10.67;;
8737;SDS011;4405;49.272;8.590;2023-01-31T07:31:45;18.80;;;9.80;;
8737;SDS011;4405;49.272;8.590;2023-01-31T07:34:12;18.13;;;10.03;;
8737;SDS011;4405;49.272;8.590;2023-01-31T07:36:38;17.50;;;9.70;;
8737;SDS011;4405;49.272;8.590;2023-01-31T07:39:04;21.93;;;10.20;;
8737;SDS011;4405;49.272;8.590;2023-01-31T07:41:32;15.87;;;9.93;;
8737;SDS011;4405;49.272;8.590;2023-01-31T07:43:58;20.17;;;10.67;;
8737;SDS011;4405;49.272;8.590;2023-01-31T07:46:25;20.00;;;10.23;;
8737;SDS011;4405;49.272;8.590;2023-01-31T07:48:51;15.47;;;9.70;;
8737;SDS011;4405;49.272;8.590;2023-01-31T07:51:17;15.23;;;8.93;;
8737;SDS011;4405;49.272;8.590;2023-01-31T07:53:44;15.57;;;9.30;;
8737;SDS011;4405;49.272;8.590;2023-01-31T07:56:11;20.57;;;9.63;;
8737;SDS011;4405;49.272;8.590;2023-01-31T07:58:40;19.10;;;10.00;;
8737;SDS011;4405;49.272;8.590;2023-01-31T08:01:06;15.37;;;9.50;;
8737;SDS011;4405;49.272;8.590;2023-01-31T08:03:52;19.23;;;10.40;;
8737;SDS011;4405;49.272;8.590;2023-01-31T08:06:18;19.33;;;11.00;;
8737;SDS011;4405;49.272;8.590;2023-01-31T08:08:45;18.17;;;10.77;;
8737;SDS011;4405;49.272;8.590;2023-01-31T08:11:11;23.43;;;13.13;;
8737;SDS011;4405;49.272;8.590;2023-01-31T08:13:37;23.30;;;12.00;;
8737;SDS011;4405;49.272;8.590;2023-01-31T08:16:06;22.77;;;11.37;;
8737;SDS011;4405;49.272;8.590;2023-01-31T08:18:33;20.70;;;11.40;;
8737;SDS011;4405;49.272;8.590;2023-01-31T08:20:59;20.30;;;11.00;;
8737;SDS011;4405;49.272;8.590;2023-01-31T08:23:26;23.50;;;11.70;;
8737;SDS011;4405;49.272;8.590;2023-01-31T08:25:58;20.77;;;10.93;;
8737;SDS011;4405;49.272;8.590;2023-01-31T08:28:24;17.63;;;10.87;;
8737;SDS011;4405;49.272;8.590;2023-01-31T08:30:51;18.17;;;10.00;;
8737;SDS011;4405;49.272;8.590;2023-01-31T08:33:18;22.20;;;12.07;;
8737;SDS011;4405;49.272;8.590;2023-01-31T08:35:45;17.70;;;10.70;;
8737;SDS011;4405;49.272;8.590;2023-01-31T08:38:11;20.70;;;10.77;;
8737;SDS011;4405;49.272;8.590;2023-01-31T08:40:37;22.43;;;11.20;;
8737;SDS011;4405;49.272;8.590;2023-01-31T08:43:04;18.60;;;10.93;;
8737;SDS011;4405;49.272;8.590;2023-01-31T08:45:30;19.17;;;10.87;;
8737;SDS011;4405;49.272;8.590;2023-01-31T08:47:57;17.40;;;10.90;;
8737;SDS011;4405;49.272;8.590;2023-01-31T08:50:26;19.23;;;10.37;;
8737;SDS011;4405;49.272;8.590;2023-01-31T08:52:53;17.97;;;9.77;;
8737;SDS011;4405;49.272;8.590;2023-01-31T08:55:20;14.47;;;9.03;;
8737;SDS011;4405;49.272;8.590;2023-01-31T08:57:46;17.63;;;9.40;;
8737;SDS011;4405;49.272;8.590;2023-01-31T09:00:13;12.23;;;8.60;;
8737;SDS011;4405;49.272;8.590;2023-01-31T09:02:40;12.73;;;8.33;;
8737;SDS011;4405;49.272;8.590;2023-01-31T09:05:06;13.50;;;8.93;;
8737;SDS011;4405;49.272;8.590;2023-01-31T09:07:34;13.77;;;8.83;;
8737;SDS011;4405;49.272;8.590;2023-01-31T09:10:01;15.63;;;8.53;;
8737;SDS011;4405;49.272;8.590;2023-01-31T09:12:27;17.17;;;8.97;;
8737;SDS011;4405;49.272;8.590;2023-01-31T09:14:53;14.80;;;8.73;;
8737;SDS011;4405;49.272;8.590;2023-01-31T09:17:20;14.17;;;8.70;;
8737;SDS011;4405;49.272;8.590;2023-01-31T09:19:46;13.20;;;8.50;;
8737;SDS011;4405;49.272;8.590;2023-01-31T09:22:13;16.17;;;8.83;;
8737;SDS011;4405;49.272;8.590;2023-01-31T09:24:40;12.80;;;8.03;;
8737;SDS011;4405;49.272;8.590;2023-01-31T09:27:07;16.17;;;8.43;;
8737;SDS011;4405;49.272;8.590;2023-01-31T09:29:33;13.07;;;8.30;;
8737;SDS011;4405;49.272;8.590;2023-01-31T09:31:59;13.43;;;7.47;;
8737;SDS011;4405;49.272;8.590;2023-01-31T09:34:26;13.20;;;7.70;;
8737;SDS011;4405;49.272;8.590;2023-01-31T09:36:52;13.13;;;7.50;;
8737;SDS011;4405;49.272;8.590;2023-01-31T09:39:21;16.33;;;7.73;;
8737;SDS011;4405;49.272;8.590;2023-01-31T09:41:49;11.83;;;7.53;;
8737;SDS011;4405;49.272;8.590;2023-01-31T09:44:18;14.80;;;7.53;;
8737;SDS011;4405;49.272;8.590;2023-01-31T09:46:46;14.73;;;7.60;;
8737;SDS011;4405;49.272;8.590;2023-01-31T09:49:15;10.97;;;6.90;;
8737;SDS011;4405;49.272;8.590;2023-01-31T09:51:44;11.30;;;6.87;;
8737;SDS011;4405;49.272;8.590;2023-01-31T09:54:15;12.23;;;7.60;;
8737;SDS011;4405;49.272;8.590;2023-01-31T09:56:44;10.50;;;7.40;;
8737;SDS011;4405;49.272;8.590;2023-01-31T09:59:16;12.10;;;7.20;;
8737;SDS011;4405;49.272;8.590;2023-01-31T10:01:48;11.17;;;7.80;;
8737;SDS011;4405;49.272;8.590;2023-01-31T10:07:00;10.93;;;7.07;;
8737;SDS011;4405;49.272;8.590;2023-01-31T10:09:29;11.47;;;7.53;;
8737;SDS011;4405;49.272;8.590;2023-01-31T10:11:58;14.33;;;7.80;;
8737;SDS011;4405;49.272;8.590;2023-01-31T10:14:28;12.70;;;7.27;;
8737;SDS011;4405;49.272;8.590;2023-01-31T10:16:59;10.20;;;6.47;;
8737;SDS011;4405;49.272;8.590;2023-01-31T10:19:29;10.03;;;6.67;;
8737;SDS011;4405;49.272;8.590;2023-01-31T10:21:58;10.63;;;6.20;;
8737;SDS011;4405;49.272;8.590;2023-01-31T10:24:26;13.20;;;6.40;;
8737;SDS011;4405;49.272;8.590;2023-01-31T10:26:55;8.07;;;6.10;;
8737;SDS011;4405;49.272;8.590;2023-01-31T10:29:25;10.53;;;6.57;;
8737;SDS011;4405;49.272;8.590;2023-01-31T10:31:56;12.90;;;6.60;;
8737;SDS011;4405;49.272;8.590;2023-01-31T10:34:24;9.37;;;6.17;;
8737;SDS011;4405;49.272;8.590;2023-01-31T10:36:52;11.07;;;5.90;;
8737;SDS011;4405;49.272;8.590;2023-01-31T10:39:21;10.13;;;6.07;;
8737;SDS011;4405;49.272;8.590;2023-01-31T10:41:59;9.77;;;5.90;;
8737;SDS011;4405;49.272;8.590;2023-01-31T10:44:31;12.93;;;6.03;;
8737;SDS011;4405;49.272;8.590;2023-01-31T10:47:00;10.83;;;5.67;;
8737;SDS011;4405;49.272;8.590;2023-01-31T10:49:27;11.60;;;5.60;;
8737;SDS011;4405;49.272;8.590;2023-01-31T10:52:04;9.73;;;5.87;;
8737;SDS011;4405;49.272;8.590;2023-01-31T10:54:36;14.20;;;5.53;;
8737;SDS011;4405;49.272;8.590;2023-01-31T10:57:05;9.83;;;5.27;;
8737;SDS011;4405;49.272;8.590;2023-01-31T10:59:32;11.53;;;5.17;;
8737;SDS011;4405;49.272;8.590;2023-01-31T11:02:01;9.50;;;5.40;;
8737;SDS011;4405;49.272;8.590;2023-01-31T11:04:28;11.93;;;5.37;;
8737;SDS011;4405;49.272;8.590;2023-01-31T11:06:56;10.43;;;5.50;;
8737;SDS011;4405;49.272;8.590;2023-01-31T11:09:23;10.23;;;5.20;;
8737;SDS011;4405;49.272;8.590;2023-01-31T11:11:53;11.60;;;5.67;;
8737;SDS011;4405;49.272;8.590;2023-01-31T11:14:20;14.10;;;5.27;;
8737;SDS011;4405;49.272;8.590;2023-01-31T11:16:46;12.83;;;6.27;;
8737;SDS011;4405;49.272;8.590;2023-01-31T11:19:16;10.07;;;5.77;;
8737;SDS011;4405;49.272;8.590;2023-01-31T11:21:46;11.10;;;6.00;;
8737;SDS011;4405;49.272;8.590;2023-01-31T11:24:15;10.20;;;6.07;;
8737;SDS011;4405;49.272;8.590;2023-01-31T11:26:42;13.37;;;6.87;;
8737;SDS011;4405;49.272;8.590;2023-01-31T11:29:16;11.00;;;6.47;;
8737;SDS011;4405;49.272;8.590;2023-01-31T11:31:42;15.00;;;6.80;;
8737;SDS011;4405;49.272;8.590;2023-01-31T11:34:18;11.43;;;6.60;;
8737;SDS011;4405;49.272;8.590;2023-01-31T11:36:45;12.87;;;6.70;;
8737;SDS011;4405;49.272;8.590;2023-01-31T11:39:24;10.27;;;6.67;;
8737;SDS011;4405;49.272;8.590;2023-01-31T11:41:51;15.07;;;7.23;;
8737;SDS011;4405;49.272;8.590;2023-01-31T11:44:18;12.53;;;6.70;;
8737;SDS011;4405;49.272;8.590;2023-01-31T11:46:49;10.10;;;7.00;;
8737;SDS011;4405;49.272;8.590;2023-01-31T11:49:21;11.07;;;6.60;;
8737;SDS011;4405;49.272;8.590;2023-01-31T11:51:48;12.20;;;7.20;;
8737;SDS011;4405;49.272;8.590;2023-01-31T11:54:17;13.43;;;7.00;;
8737;SDS011;4405;49.272;8.590;2023-01-31T11:56:44;10.23;;;6.73;;
8737;SDS011;4405;49.272;8.590;2023-01-31T11:59:12;11.97;;;7.63;;
8737;SDS011;4405;49.272;8.590;2023-01-31T12:01:43;12.43;;;7.30;;
8737;SDS011;4405;49.272;8.590;2023-01-31T12:04:13;12.47;;;7.40;;
8737;SDS011;4405;49.272;8.590;2023-01-31T12:06:42;10.93;;;6.77;;
8737;SDS011;4405;49.272;8.590;2023-01-31T12:09:20;10.07;;;6.53;;
8737;SDS011;4405;49.272;8.590;2023-01-31T12:11:49;9.53;;;6.43;;
8737;SDS011;4405;49.272;8.590;2023-01-31T12:14:16;8.27;;;6.17;;
8737;SDS011;4405;49.272;8.590;2023-01-31T12:16:43;10.27;;;6.57;;
8737;SDS011;4405;49.272;8.590;2023-01-31T12:19:13;9.17;;;6.43;;
8737;SDS011;4405;49.272;8.590;2023-01-31T12:21:49;9.83;;;6.70;;
8737;SDS011;4405;49.272;8.590;2023-01-31T12:24:18;9.60;;;6.57;;
8737;SDS011;4405;49.272;8.590;2023-01-31T12:26:49;9.93;;;6.70;;
8737;SDS011;4405;49.272;8.590;2023-01-31T12:29:23;12.47;;;6.70;;
8737;SDS011;4405;49.272;8.590;2023-01-31T12:32:01;9.03;;;6.63;;
8737;SDS011;4405;49.272;8.590;2023-01-31T12:34:37;9.97;;;6.27;;
8737;SDS011;4405;49.272;8.590;2023-01-31T12:37:20;9.50;;;6.80;;
8737;SDS011;4405;49.272;8.590;2023-01-31T12:39:55;14.17;;;7.20;;
8737;SDS011;4405;49.272;8.590;2023-01-31T12:42:27;10.00;;;6.93;;
8737;SDS011;4405;49.272;8.590;2023-01-31T12:44:58;11.63;;;7.50;;
8737;SDS011;4405;49.272;8.590;2023-01-31T12:47:37;10.63;;;6.53;;
8737;SDS011;4405;49.272;8.590;2023-01-31T12:52:54;10.17;;;6.70;;
8737;SDS011;4405;49.272;8.590;2023-01-31T12:55:28;11.47;;;6.53;;
8737;SDS011;4405;49.272;8.590;2023-01-31T12:58:02;8.17;;;6.47;;
8737;SDS011;4405;49.272;8.590;2023-01-31T13:00:31;8.93;;;6.60;;
8737;SDS011;4405;49.272;8.590;2023-01-31T13:03:08;11.23;;;6.73;;
8737;SDS011;4405;49.272;8.590;2023-01-31T13:05:38;9.00;;;6.57;;
8737;SDS011;4405;49.272;8.590;2023-01-31T13:08:07;9.23;;;6.50;;
8737;SDS011;4405;49.272;8.590;2023-01-31T13:10:42;9.63;;;6.07;;
8737;SDS011;4405;49.272;8.590;2023-01-31T13:13:16;11.07;;;6.43;;
8737;SDS011;4405;49.272;8.590;2023-01-31T13:15:43;11.60;;;6.33;;
8737;SDS011;4405;49.272;8.590;2023-01-31T13:18:12;10.03;;;6.50;;
8737;SDS011;4405;49.272;8.590;2023-01-31T13:20:40;12.07;;;6.60;;
8737;SDS011;4405;49.272;8.590;2023-01-31T13:23:11;8.87;;;6.33;;
8737;SDS011;4405;49.272;8.590;2023-01-31T13:25:38;8.83;;;6.10;;
8737;SDS011;4405;49.272;8.590;2023-01-31T13:28:08;8.23;;;5.93;;
8737;SDS011;4405;49.272;8.590;2023-01-31T13:30:37;9.13;;;5.93;;
8737;SDS011;4405;49.272;8.590;2023-01-31T13:33:08;10.27;;;6.70;;
8737;SDS011;4405;49.272;8.590;2023-01-31T13:35:39;11.37;;;6.03;;
8737;SDS011;4405;49.272;8.590;2023-01-31T13:38:07;9.63;;;5.63;;
8737;SDS011;4405;49.272;8.590;2023-01-31T13:40:40;8.80;;;5.73;;
8737;SDS011;4405;49.272;8.590;2023-01-31T13:43:07;10.40;;;6.03;;
8737;SDS011;4405;49.272;8.590;2023-01-31T13:45:37;8.00;;;5.80;;
8737;SDS011;4405;49.272;8.590;2023-01-31T13:48:08;8.57;;;5.60;;
8737;SDS011;4405;49.272;8.590;2023-01-31T13:50:36;7.40;;;5.47;;
8737;SDS011;4405;49.272;8.590;2023-01-31T13:53:04;7.13;;;5.40;;
8737;SDS011;4405;49.272;8.590;2023-01-31T13:55:32;8.03;;;5.40;;
8737;SDS011;4405;49.272;8.590;2023-01-31T13:58:03;9.10;;;5.40;;
8737;SDS011;4405;49.272;8.590;2023-01-31T14:00:35;9.37;;;4.87;;
8737;SDS011;4405;49.272;8.590;2023-01-31T14:03:03;6.13;;;5.53;;
8737;SDS011;4405;49.272;8.590;2023-01-31T14:05:48;7.87;;;5.37;;
8737;SDS011;4405;49.272;8.590;2023-01-31T14:08:35;7.20;;;5.43;;
8737;SDS011;4405;49.272;8.590;2023-01-31T14:11:02;7.20;;;5.13;;
8737;SDS011;4405;49.272;8.590;2023-01-31T14:13:37;8.20;;;5.20;;
8737;SDS011;4405;49.272;8.590;2023-01-31T14:18:49;7.77;;;5.03;;
8737;SDS011;4405;49.272;8.590;2023-01-31T14:24:00;8.50;;;5.13;;
8737;SDS011;4405;49.272;8.590;2023-01-31T14:26:32;8.30;;;5.17;;
8737;SDS011;4405;49.272;8.590;2023-01-31T14:29:00;6.37;;;5.07;;
8737;SDS011;4405;49.272;8.590;2023-01-31T14:31:32;5.93;;;4.90;;
8737;SDS011;4405;49.272;8.590;2023-01-31T14:33:59;10.23;;;6.17;;
8737;SDS011;4405;49.272;8.590;2023-01-31T14:36:31;9.33;;;5.40;;
8737;SDS011;4405;49.272;8.590;2023-01-31T14:41:56;10.43;;;5.13;;
8737;SDS011;4405;49.272;8.590;2023-01-31T14:44:28;6.87;;;5.27;;
8737;SDS011;4405;49.272;8.590;2023-01-31T14:47:05;8.37;;;5.43;;
8737;SDS011;4405;49.272;8.590;2023-01-31T14:49:46;6.73;;;5.60;;
8737;SDS011;4405;49.272;8.590;2023-01-31T14:52:20;7.97;;;5.57;;
8737;SDS011;4405;49.272;8.590;2023-01-31T14:54:54;8.30;;;5.40;;
8737;SDS011;4405;49.272;8.590;2023-01-31T14:57:24;9.23;;;5.60;;
8737;SDS011;4405;49.272;8.590;2023-01-31T14:59:54;10.73;;;5.80;;
8737;SDS011;4405;49.272;8.590;2023-01-31T15:02:39;8.73;;;5.37;;
8737;SDS011;4405;49.272;8.590;2023-01-31T15:05:10;7.07;;;5.40;;
8737;SDS011;4405;49.272;8.590;2023-01-31T15:07:49;10.30;;;5.27;;
8737;SDS011;4405;49.272;8.590;2023-01-31T15:13:26;12.13;;;5.40;;
8737;SDS011;4405;49.272;8.590;2023-01-31T15:15:58;10.03;;;5.40;;
8737;SDS011;4405;49.272;8.590;2023-01-31T15:18:26;11.77;;;5.40;;
8737;SDS011;4405;49.272;8.590;2023-01-31T15:20:54;8.93;;;5.40;;
8737;SDS011;4405;49.272;8.590;2023-01-31T15:23:23;7.10;;;5.07;;
8737;SDS011;4405;49.272;8.590;2023-01-31T15:25:50;7.77;;;5.03;;
8737;SDS011;4405;49.272;8.590;2023-01-31T15:28:17;8.57;;;5.30;;
8737;SDS011;4405;49.272;8.590;2023-01-31T15:30:45;8.20;;;5.47;;